sensor_id;sensor_type;location;lat;lon;timestamp;temperature;humidity
37702;DHT22;23548;51.196;6.838;2023-06-10T00:02:10;20.90;94.00
37702;DHT22;23548;51.196;6.838;2023-06-10T00:04:36;20.90;94.00
37702;DHT22;23548;51.196;6.838;2023-06-10T00:07:05;20.90;94.30
37702;DHT22;23548;51.196;6.838;2023-06-10T00:09:37;20.80;94.40
37702;DHT22;23548;51.196;6.838;2023-06-10T00:12:07;20.80;94.50
37702;DHT22;23548;51.196;6.838;2023-06-10T00:14:35;20.70;94.70
37702;DHT22;23548;51.196;6.838;2023-06-10T00:17:00;20.70;95.00
37702;DHT22;23548;51.196;6.838;2023-06-10T00:19:26;20.60;95.10
37702;DHT22;23548;51.196;6.838;2023-06-10T00:21:56;20.60;95.30
37702;DHT22;23548;51.196;6.838;2023-06-10T00:24:22;20.60;95.50
37702;DHT22;23548;51.196;6.838;2023-06-10T00:26:48;20.60;95.90
37702;DHT22;23548;51.196;6.838;2023-06-10T00:29:14;20.50;96.00
37702;DHT22;23548;51.196;6.838;2023-06-10T00:31:40;20.50;96.10
37702;DHT22;23548;51.196;6.838;2023-06-10T00:34:07;20.50;96.20
37702;DHT22;23548;51.196;6.838;2023-06-10T00:36:33;20.40;96.50
37702;DHT22;23548;51.196;6.838;2023-06-10T00:38:59;20.40;96.60
37702;DHT22;23548;51.196;6.838;2023-06-10T00:41:25;20.30;96.80
37702;DHT22;23548;51.196;6.838;2023-06-10T00:43:53;20.30;97.00
37702;DHT22;23548;51.196;6.838;2023-06-10T00:46:20;20.30;97.30
37702;DHT22;23548;51.196;6.838;2023-06-10T00:48:46;20.20;97.60
37702;DHT22;23548;51.196;6.838;2023-06-10T00:51:12;20.10;98.20
37702;DHT22;23548;51.196;6.838;2023-06-10T00:53:40;20.00;98.50
37702;DHT22;23548;51.196;6.838;2023-06-10T00:56:07;20.00;99.00
37702;DHT22;23548;51.196;6.838;2023-06-10T00:58:33;19.90;99.90
37702;DHT22;23548;51.196;6.838;2023-06-10T01:00:59;19.80;99.90
37702;DHT22;23548;51.196;6.838;2023-06-10T01:03:25;19.70;99.90
37702;DHT22;23548;51.196;6.838;2023-06-10T01:05:59;19.70;99.90
37702;DHT22;23548;51.196;6.838;2023-06-10T01:11:39;19.60;99.90
37702;DHT22;23548;51.196;6.838;2023-06-10T01:14:07;19.60;99.90
37702;DHT22;23548;51.196;6.838;2023-06-10T01:16:35;19.50;99.90
37702;DHT22;23548;51.196;6.838;2023-06-10T01:19:03;19.50;99.90
37702;DHT22;23548;51.196;6.838;2023-06-10T01:21:28;19.50;99.90
37702;DHT22;23548;51.196;6.838;2023-06-10T01:23:55;19.40;99.90
37702;DHT22;23548;51.196;6.838;2023-06-10T01:26:26;19.50;99.90
37702;DHT22;23548;51.196;6.838;2023-06-10T01:29:11;19.40;99.90
37702;DHT22;23548;51.196;6.838;2023-06-10T01:31:44;19.40;99.90
37702;DHT22;23548;51.196;6.838;2023-06-10T01:34:16;19.30;99.90
37702;DHT22;23548;51.196;6.838;2023-06-10T01:36:46;19.30;99.90
37702;DHT22;23548;51.196;6.838;2023-06-10T01:39:15;19.20;99.90
37702;DHT22;23548;51.196;6.838;2023-06-10T01:41:42;19.20;99.90
37702;DHT22;23548;51.196;6.838;2023-06-10T01:44:21;19.20;99.90
37702;DHT22;23548;51.196;6.838;2023-06-10T01:46:47;19.10;99.90
37702;DHT22;23548;51.196;6.838;2023-06-10T01:49:13;19.10;99.90
37702;DHT22;23548;51.196;6.838;2023-06-10T01:51:39;19.00;99.90
37702;DHT22;23548;51.196;6.838;2023-06-10T01:54:05;19.00;99.90
37702;DHT22;23548;51.196;6.838;2023-06-10T01:56:32;19.00;99.90
37702;DHT22;23548;51.196;6.838;2023-06-10T01:58:57;18.90;99.90
37702;DHT22;23548;51.196;6.838;2023-06-10T02:01:25;18.90;99.90
37702;DHT22;23548;51.196;6.838;2023-06-10T02:03:51;18.90;99.90
37702;DHT22;23548;51.196;6.838;2023-06-10T02:06:17;18.80;99.90
37702;DHT22;23548;51.196;6.838;2023-06-10T02:08:42;18.80;99.90
37702;DHT22;23548;51.196;6.838;2023-06-10T02:11:08;18.80;99.90
37702;DHT22;23548;51.196;6.838;2023-06-10T02:13:34;18.80;99.90
37702;DHT22;23548;51.196;6.838;2023-06-10T02:16:00;18.80;99.90
37702;DHT22;23548;51.196;6.838;2023-06-10T02:18:27;18.80;99.90
37702;DHT22;23548;51.196;6.838;2023-06-10T02:20:53;18.80;99.90
37702;DHT22;23548;51.196;6.838;2023-06-10T02:23:19;18.80;99.90
37702;DHT22;23548;51.196;6.838;2023-06-10T02:25:45;18.80;99.90
37702;DHT22;23548;51.196;6.838;2023-06-10T02:28:13;18.80;99.90
37702;DHT22;23548;51.196;6.838;2023-06-10T02:30:40;18.80;99.90
37702;DHT22;23548;51.196;6.838;2023-06-10T02:33:07;18.70;99.90
37702;DHT22;23548;51.196;6.838;2023-06-10T02:35:36;18.60;99.90
37702;DHT22;23548;51.196;6.838;2023-06-10T02:38:02;18.60;99.90
37702;DHT22;23548;51.196;6.838;2023-06-10T02:40:28;18.60;99.90
37702;DHT22;23548;51.196;6.838;2023-06-10T02:42:54;18.50;99.90
37702;DHT22;23548;51.196;6.838;2023-06-10T02:45:19;18.40;99.90
37702;DHT22;23548;51.196;6.838;2023-06-10T02:47:45;18.30;99.90
37702;DHT22;23548;51.196;6.838;2023-06-10T02:50:11;18.30;99.90
37702;DHT22;23548;51.196;6.838;2023-06-10T02:52:37;18.20;99.90
37702;DHT22;23548;51.196;6.838;2023-06-10T02:55:03;18.10;99.90
37702;DHT22;23548;51.196;6.838;2023-06-10T02:57:29;18.00;99.90
37702;DHT22;23548;51.196;6.838;2023-06-10T02:59:54;18.00;99.90
37702;DHT22;23548;51.196;6.838;2023-06-10T03:02:20;18.00;99.90
37702;DHT22;23548;51.196;6.838;2023-06-10T03:04:47;17.90;99.90
37702;DHT22;23548;51.196;6.838;2023-06-10T03:07:13;17.90;99.90
37702;DHT22;23548;51.196;6.838;2023-06-10T03:09:39;17.90;99.90
37702;DHT22;23548;51.196;6.838;2023-06-10T03:12:05;17.80;99.90
37702;DHT22;23548;51.196;6.838;2023-06-10T03:14:31;17.80;99.90
37702;DHT22;23548;51.196;6.838;2023-06-10T03:16:57;17.80;99.90
37702;DHT22;23548;51.196;6.838;2023-06-10T03:19:23;17.80;99.90
37702;DHT22;23548;51.196;6.838;2023-06-10T03:22:10;17.80;99.90
37702;DHT22;23548;51.196;6.838;2023-06-10T03:24:36;17.80;99.90
37702;DHT22;23548;51.196;6.838;2023-06-10T03:27:07;17.80;99.90
37702;DHT22;23548;51.196;6.838;2023-06-10T03:29:33;17.80;99.90
37702;DHT22;23548;51.196;6.838;2023-06-10T03:31:59;17.80;99.90
37702;DHT22;23548;51.196;6.838;2023-06-10T03:34:25;17.90;99.90
37702;DHT22;23548;51.196;6.838;2023-06-10T03:36:51;17.90;99.90
37702;DHT22;23548;51.196;6.838;2023-06-10T03:39:16;17.90;99.90
37702;DHT22;23548;51.196;6.838;2023-06-10T03:41:42;17.80;99.90
37702;DHT22;23548;51.196;6.838;2023-06-10T03:44:08;17.80;99.90
37702;DHT22;23548;51.196;6.838;2023-06-10T03:46:34;17.80;99.90
37702;DHT22;23548;51.196;6.838;2023-06-10T03:48:59;17.80;99.90
37702;DHT22;23548;51.196;6.838;2023-06-10T03:51:29;17.80;99.90
37702;DHT22;23548;51.196;6.838;2023-06-10T03:53:55;17.90;99.90
37702;DHT22;23548;51.196;6.838;2023-06-10T03:56:21;17.90;99.90
37702;DHT22;23548;51.196;6.838;2023-06-10T03:58:47;17.90;99.90
37702;DHT22;23548;51.196;6.838;2023-06-10T04:01:12;17.90;99.90
37702;DHT22;23548;51.196;6.838;2023-06-10T04:03:43;18.00;99.90
37702;DHT22;23548;51.196;6.838;2023-06-10T04:06:09;18.00;99.90
37702;DHT22;23548;51.196;6.838;2023-06-10T04:08:35;18.10;99.90
37702;DHT22;23548;51.196;6.838;2023-06-10T04:11:01;18.20;99.90
37702;DHT22;23548;51.196;6.838;2023-06-10T04:13:27;18.30;99.90
37702;DHT22;23548;51.196;6.838;2023-06-10T04:15:53;18.40;99.90
37702;DHT22;23548;51.196;6.838;2023-06-10T04:18:20;18.50;99.90
37702;DHT22;23548;51.196;6.838;2023-06-10T04:20:47;18.60;99.90
37702;DHT22;23548;51.196;6.838;2023-06-10T04:23:13;18.70;99.90
37702;DHT22;23548;51.196;6.838;2023-06-10T04:25:38;18.70;99.90
37702;DHT22;23548;51.196;6.838;2023-06-10T04:28:04;18.80;99.90
37702;DHT22;23548;51.196;6.838;2023-06-10T04:30:30;19.00;99.90
37702;DHT22;23548;51.196;6.838;2023-06-10T04:32:57;19.00;99.90
37702;DHT22;23548;51.196;6.838;2023-06-10T04:35:22;19.10;99.90
37702;DHT22;23548;51.196;6.838;2023-06-10T04:37:48;19.20;99.90
37702;DHT22;23548;51.196;6.838;2023-06-10T04:40:14;19.30;99.90
37702;DHT22;23548;51.196;6.838;2023-06-10T04:42:41;19.40;99.90
37702;DHT22;23548;51.196;6.838;2023-06-10T04:45:07;19.40;99.90
37702;DHT22;23548;51.196;6.838;2023-06-10T04:47:34;19.50;99.90
37702;DHT22;23548;51.196;6.838;2023-06-10T04:50:00;19.60;99.90
37702;DHT22;23548;51.196;6.838;2023-06-10T04:52:26;19.70;99.90
37702;DHT22;23548;51.196;6.838;2023-06-10T04:54:53;19.80;99.90
37702;DHT22;23548;51.196;6.838;2023-06-10T04:57:19;19.80;99.90
37702;DHT22;23548;51.196;6.838;2023-06-10T04:59:46;19.90;99.90
37702;DHT22;23548;51.196;6.838;2023-06-10T05:02:12;19.90;99.90
37702;DHT22;23548;51.196;6.838;2023-06-10T05:04:37;20.00;99.90
37702;DHT22;23548;51.196;6.838;2023-06-10T05:07:03;20.10;99.90
37702;DHT22;23548;51.196;6.838;2023-06-10T05:09:30;20.10;99.90
37702;DHT22;23548;51.196;6.838;2023-06-10T05:11:56;20.20;99.90
37702;DHT22;23548;51.196;6.838;2023-06-10T05:14:21;20.30;99.90
37702;DHT22;23548;51.196;6.838;2023-06-10T05:16:50;20.40;99.90
37702;DHT22;23548;51.196;6.838;2023-06-10T05:19:16;20.50;99.90
37702;DHT22;23548;51.196;6.838;2023-06-10T05:21:42;20.60;99.90
37702;DHT22;23548;51.196;6.838;2023-06-10T05:24:07;20.70;99.90
37702;DHT22;23548;51.196;6.838;2023-06-10T05:26:33;20.80;99.90
37702;DHT22;23548;51.196;6.838;2023-06-10T05:29:03;20.80;99.90
37702;DHT22;23548;51.196;6.838;2023-06-10T05:31:29;20.90;99.90
37702;DHT22;23548;51.196;6.838;2023-06-10T05:33:54;20.90;99.90
37702;DHT22;23548;51.196;6.838;2023-06-10T05:36:20;21.00;99.90
37702;DHT22;23548;51.196;6.838;2023-06-10T05:38:46;21.10;99.90
37702;DHT22;23548;51.196;6.838;2023-06-10T05:41:12;21.20;99.90
37702;DHT22;23548;51.196;6.838;2023-06-10T05:43:38;21.30;99.90
37702;DHT22;23548;51.196;6.838;2023-06-10T05:46:04;21.40;99.90
37702;DHT22;23548;51.196;6.838;2023-06-10T05:48:29;21.40;99.90
37702;DHT22;23548;51.196;6.838;2023-06-10T05:50:55;21.50;99.90
37702;DHT22;23548;51.196;6.838;2023-06-10T05:53:21;21.50;99.90
37702;DHT22;23548;51.196;6.838;2023-06-10T05:55:47;21.60;99.90
37702;DHT22;23548;51.196;6.838;2023-06-10T05:58:14;21.60;99.90
37702;DHT22;23548;51.196;6.838;2023-06-10T06:00:40;21.60;99.90
37702;DHT22;23548;51.196;6.838;2023-06-10T06:03:07;21.50;99.90
37702;DHT22;23548;51.196;6.838;2023-06-10T06:05:36;21.60;99.90
37702;DHT22;23548;51.196;6.838;2023-06-10T06:08:09;21.90;99.90
37702;DHT22;23548;51.196;6.838;2023-06-10T06:10:36;21.90;99.90
37702;DHT22;23548;51.196;6.838;2023-06-10T06:13:02;22.00;99.90
37702;DHT22;23548;51.196;6.838;2023-06-10T06:15:27;22.10;99.90
37702;DHT22;23548;51.196;6.838;2023-06-10T06:17:53;22.20;99.90
37702;DHT22;23548;51.196;6.838;2023-06-10T06:20:22;22.40;99.90
37702;DHT22;23548;51.196;6.838;2023-06-10T06:22:48;22.50;99.90
37702;DHT22;23548;51.196;6.838;2023-06-10T06:25:14;22.50;99.90
37702;DHT22;23548;51.196;6.838;2023-06-10T06:27:40;22.60;99.90
37702;DHT22;23548;51.196;6.838;2023-06-10T06:30:07;22.70;99.70
37702;DHT22;23548;51.196;6.838;2023-06-10T06:32:32;22.60;99.50
37702;DHT22;23548;51.196;6.838;2023-06-10T06:34:58;22.80;99.10
37702;DHT22;23548;51.196;6.838;2023-06-10T06:37:25;22.90;98.70
37702;DHT22;23548;51.196;6.838;2023-06-10T06:39:51;23.10;97.80
37702;DHT22;23548;51.196;6.838;2023-06-10T06:42:17;23.10;97.10
37702;DHT22;23548;51.196;6.838;2023-06-10T06:44:44;23.10;97.20
37702;DHT22;23548;51.196;6.838;2023-06-10T06:47:09;23.20;96.40
37702;DHT22;23548;51.196;6.838;2023-06-10T06:49:35;23.10;96.80
37702;DHT22;23548;51.196;6.838;2023-06-10T06:52:01;23.20;94.50
37702;DHT22;23548;51.196;6.838;2023-06-10T06:54:27;23.40;93.60
37702;DHT22;23548;51.196;6.838;2023-06-10T06:56:53;23.50;93.60
37702;DHT22;23548;51.196;6.838;2023-06-10T06:59:18;23.40;93.90
37702;DHT22;23548;51.196;6.838;2023-06-10T07:01:47;23.60;93.60
37702;DHT22;23548;51.196;6.838;2023-06-10T07:04:15;23.80;93.00
37702;DHT22;23548;51.196;6.838;2023-06-10T07:06:41;23.90;92.90
37702;DHT22;23548;51.196;6.838;2023-06-10T07:09:07;23.90;92.40
37702;DHT22;23548;51.196;6.838;2023-06-10T07:11:36;23.90;92.20
37702;DHT22;23548;51.196;6.838;2023-06-10T07:14:02;24.00;92.10
37702;DHT22;23548;51.196;6.838;2023-06-10T07:16:28;24.00;92.00
37702;DHT22;23548;51.196;6.838;2023-06-10T07:18:53;24.00;92.10
37702;DHT22;23548;51.196;6.838;2023-06-10T07:21:19;24.10;91.00
37702;DHT22;23548;51.196;6.838;2023-06-10T07:23:45;24.20;89.60
37702;DHT22;23548;51.196;6.838;2023-06-10T07:26:11;24.30;91.10
37702;DHT22;23548;51.196;6.838;2023-06-10T07:28:39;24.20;91.30
37702;DHT22;23548;51.196;6.838;2023-06-10T07:31:06;24.40;90.60
37702;DHT22;23548;51.196;6.838;2023-06-10T07:33:32;24.40;90.70
37702;DHT22;23548;51.196;6.838;2023-06-10T07:35:58;24.60;90.00
37702;DHT22;23548;51.196;6.838;2023-06-10T07:38:26;24.80;87.70
37702;DHT22;23548;51.196;6.838;2023-06-10T07:40:52;24.80;87.90
37702;DHT22;23548;51.196;6.838;2023-06-10T07:43:18;24.70;86.40
37702;DHT22;23548;51.196;6.838;2023-06-10T07:45:44;24.60;85.10
37702;DHT22;23548;51.196;6.838;2023-06-10T07:48:10;24.90;84.70
37702;DHT22;23548;51.196;6.838;2023-06-10T07:50:35;24.80;84.20
37702;DHT22;23548;51.196;6.838;2023-06-10T07:53:01;25.00;85.20
37702;DHT22;23548;51.196;6.838;2023-06-10T07:55:27;25.20;84.70
37702;DHT22;23548;51.196;6.838;2023-06-10T07:57:53;25.40;84.70
37702;DHT22;23548;51.196;6.838;2023-06-10T08:00:20;25.60;83.50
37702;DHT22;23548;51.196;6.838;2023-06-10T08:02:46;25.70;81.90
37702;DHT22;23548;51.196;6.838;2023-06-10T08:05:12;25.70;82.20
37702;DHT22;23548;51.196;6.838;2023-06-10T08:07:39;25.60;80.80
37702;DHT22;23548;51.196;6.838;2023-06-10T08:10:06;25.60;80.10
37702;DHT22;23548;51.196;6.838;2023-06-10T08:12:32;25.40;80.10
37702;DHT22;23548;51.196;6.838;2023-06-10T08:14:59;25.60;80.70
37702;DHT22;23548;51.196;6.838;2023-06-10T08:17:25;25.90;80.00
37702;DHT22;23548;51.196;6.838;2023-06-10T08:19:50;25.90;80.50
37702;DHT22;23548;51.196;6.838;2023-06-10T08:22:16;26.00;80.60
37702;DHT22;23548;51.196;6.838;2023-06-10T08:24:43;26.10;79.50
37702;DHT22;23548;51.196;6.838;2023-06-10T08:27:09;26.20;80.30
37702;DHT22;23548;51.196;6.838;2023-06-10T08:29:37;26.20;78.20
37702;DHT22;23548;51.196;6.838;2023-06-10T08:32:02;25.70;78.40
37702;DHT22;23548;51.196;6.838;2023-06-10T08:34:29;25.70;78.40
37702;DHT22;23548;51.196;6.838;2023-06-10T08:36:54;25.90;77.30
37702;DHT22;23548;51.196;6.838;2023-06-10T08:39:21;25.80;77.70
37702;DHT22;23548;51.196;6.838;2023-06-10T08:44:29;26.20;78.80
37702;DHT22;23548;51.196;6.838;2023-06-10T08:47:03;26.40;79.90
37702;DHT22;23548;51.196;6.838;2023-06-10T08:49:34;26.50;79.10
37702;DHT22;23548;51.196;6.838;2023-06-10T08:52:04;26.70;77.90
37702;DHT22;23548;51.196;6.838;2023-06-10T08:54:33;26.60;76.30
37702;DHT22;23548;51.196;6.838;2023-06-10T08:57:05;26.60;78.80
37702;DHT22;23548;51.196;6.838;2023-06-10T08:59:33;26.80;79.70
37702;DHT22;23548;51.196;6.838;2023-06-10T09:02:00;26.90;80.00
37702;DHT22;23548;51.196;6.838;2023-06-10T09:04:28;26.80;79.30
37702;DHT22;23548;51.196;6.838;2023-06-10T09:06:56;26.80;79.60
37702;DHT22;23548;51.196;6.838;2023-06-10T09:09:23;27.00;78.80
37702;DHT22;23548;51.196;6.838;2023-06-10T09:11:49;27.00;78.50
37702;DHT22;23548;51.196;6.838;2023-06-10T09:14:14;26.90;80.00
37702;DHT22;23548;51.196;6.838;2023-06-10T09:16:42;26.80;81.00
37702;DHT22;23548;51.196;6.838;2023-06-10T09:19:09;26.60;81.30
37702;DHT22;23548;51.196;6.838;2023-06-10T09:21:35;26.80;80.40
37702;DHT22;23548;51.196;6.838;2023-06-10T09:24:01;27.00;80.80
37702;DHT22;23548;51.196;6.838;2023-06-10T09:26:28;27.10;80.40
37702;DHT22;23548;51.196;6.838;2023-06-10T09:29:04;27.00;80.40
37702;DHT22;23548;51.196;6.838;2023-06-10T09:31:31;27.00;79.80
37702;DHT22;23548;51.196;6.838;2023-06-10T09:34:14;27.00;79.20
37702;DHT22;23548;51.196;6.838;2023-06-10T09:36:42;27.20;80.00
37702;DHT22;23548;51.196;6.838;2023-06-10T09:39:16;27.40;79.80
37702;DHT22;23548;51.196;6.838;2023-06-10T09:41:43;27.40;78.30
37702;DHT22;23548;51.196;6.838;2023-06-10T09:44:15;27.30;77.50
37702;DHT22;23548;51.196;6.838;2023-06-10T09:46:42;27.40;76.30
37702;DHT22;23548;51.196;6.838;2023-06-10T09:49:08;27.50;75.80
37702;DHT22;23548;51.196;6.838;2023-06-10T09:51:34;27.40;75.00
37702;DHT22;23548;51.196;6.838;2023-06-10T09:54:02;27.40;75.80
37702;DHT22;23548;51.196;6.838;2023-06-10T09:56:35;27.60;76.20
37702;DHT22;23548;51.196;6.838;2023-06-10T09:59:02;27.80;76.20
37702;DHT22;23548;51.196;6.838;2023-06-10T10:01:28;28.00;73.70
37702;DHT22;23548;51.196;6.838;2023-06-10T10:03:55;28.20;74.10
37702;DHT22;23548;51.196;6.838;2023-06-10T10:06:21;28.10;71.70
37702;DHT22;23548;51.196;6.838;2023-06-10T10:08:49;28.30;70.90
37702;DHT22;23548;51.196;6.838;2023-06-10T10:11:20;28.30;70.00
37702;DHT22;23548;51.196;6.838;2023-06-10T10:13:50;28.40;71.80
37702;DHT22;23548;51.196;6.838;2023-06-10T10:16:21;28.10;72.30
37702;DHT22;23548;51.196;6.838;2023-06-10T10:18:54;28.20;72.80
37702;DHT22;23548;51.196;6.838;2023-06-10T10:21:26;28.10;73.20
37702;DHT22;23548;51.196;6.838;2023-06-10T10:24:05;28.20;71.70
37702;DHT22;23548;51.196;6.838;2023-06-10T10:26:33;28.40;71.90
37702;DHT22;23548;51.196;6.838;2023-06-10T10:29:05;28.70;71.80
37702;DHT22;23548;51.196;6.838;2023-06-10T10:31:35;28.70;68.30
37702;DHT22;23548;51.196;6.838;2023-06-10T10:34:06;28.60;67.70
37702;DHT22;23548;51.196;6.838;2023-06-10T10:36:32;28.70;68.00
37702;DHT22;23548;51.196;6.838;2023-06-10T10:38:59;28.80;66.30
37702;DHT22;23548;51.196;6.838;2023-06-10T10:41:28;29.10;66.80
37702;DHT22;23548;51.196;6.838;2023-06-10T10:43:55;29.10;66.90
37702;DHT22;23548;51.196;6.838;2023-06-10T10:46:21;28.80;67.30
37702;DHT22;23548;51.196;6.838;2023-06-10T10:48:52;28.80;66.50
37702;DHT22;23548;51.196;6.838;2023-06-10T10:51:18;28.90;65.50
37702;DHT22;23548;51.196;6.838;2023-06-10T10:53:44;28.80;65.30
37702;DHT22;23548;51.196;6.838;2023-06-10T10:56:30;29.10;64.70
37702;DHT22;23548;51.196;6.838;2023-06-10T10:59:05;29.30;63.20
37702;DHT22;23548;51.196;6.838;2023-06-10T11:01:50;29.10;62.80
37702;DHT22;23548;51.196;6.838;2023-06-10T11:04:18;29.30;64.50
37702;DHT22;23548;51.196;6.838;2023-06-10T11:06:53;29.60;63.00
37702;DHT22;23548;51.196;6.838;2023-06-10T11:09:27;29.80;62.10
37702;DHT22;23548;51.196;6.838;2023-06-10T11:11:59;30.10;59.70
37702;DHT22;23548;51.196;6.838;2023-06-10T11:14:29;29.90;60.90
37702;DHT22;23548;51.196;6.838;2023-06-10T11:16:58;29.30;60.50
37702;DHT22;23548;51.196;6.838;2023-06-10T11:19:34;29.80;60.00
37702;DHT22;23548;51.196;6.838;2023-06-10T11:22:02;29.90;58.60
37702;DHT22;23548;51.196;6.838;2023-06-10T11:24:31;29.80;58.90
37702;DHT22;23548;51.196;6.838;2023-06-10T11:27:19;29.60;58.80
37702;DHT22;23548;51.196;6.838;2023-06-10T11:32:30;28.80;59.00
37702;DHT22;23548;51.196;6.838;2023-06-10T11:35:03;28.70;59.80
37702;DHT22;23548;51.196;6.838;2023-06-10T11:37:29;29.10;60.10
37702;DHT22;23548;51.196;6.838;2023-06-10T11:39:55;29.30;58.70
37702;DHT22;23548;51.196;6.838;2023-06-10T11:42:22;29.40;57.90
37702;DHT22;23548;51.196;6.838;2023-06-10T11:44:54;29.20;58.70
37702;DHT22;23548;51.196;6.838;2023-06-10T11:47:20;28.80;58.90
37702;DHT22;23548;51.196;6.838;2023-06-10T11:49:56;28.70;58.90
37702;DHT22;23548;51.196;6.838;2023-06-10T11:52:29;28.90;59.00
37702;DHT22;23548;51.196;6.838;2023-06-10T11:54:57;29.00;58.70
37702;DHT22;23548;51.196;6.838;2023-06-10T11:57:23;29.10;58.70
37702;DHT22;23548;51.196;6.838;2023-06-10T11:59:49;29.20;59.10
37702;DHT22;23548;51.196;6.838;2023-06-10T12:02:15;29.00;58.20
37702;DHT22;23548;51.196;6.838;2023-06-10T12:04:41;28.90;58.70
37702;DHT22;23548;51.196;6.838;2023-06-10T12:07:07;28.90;58.70
37702;DHT22;23548;51.196;6.838;2023-06-10T12:09:33;28.90;58.80
37702;DHT22;23548;51.196;6.838;2023-06-10T12:12:02;28.60;59.80
37702;DHT22;23548;51.196;6.838;2023-06-10T12:14:51;28.50;59.40
37702;DHT22;23548;51.196;6.838;2023-06-10T12:17:21;28.50;60.10
37702;DHT22;23548;51.196;6.838;2023-06-10T12:19:48;28.30;60.00
37702;DHT22;23548;51.196;6.838;2023-06-10T12:22:15;28.30;60.70
37702;DHT22;23548;51.196;6.838;2023-06-10T12:24:45;28.30;61.60
37702;DHT22;23548;51.196;6.838;2023-06-10T12:27:12;28.40;61.80
37702;DHT22;23548;51.196;6.838;2023-06-10T12:29:38;28.50;62.70
37702;DHT22;23548;51.196;6.838;2023-06-10T12:32:04;28.50;60.30
37702;DHT22;23548;51.196;6.838;2023-06-10T12:34:37;28.60;61.20
37702;DHT22;23548;51.196;6.838;2023-06-10T12:37:10;28.60;60.00
37702;DHT22;23548;51.196;6.838;2023-06-10T12:39:39;28.80;60.10
37702;DHT22;23548;51.196;6.838;2023-06-10T12:42:05;28.90;60.20
37702;DHT22;23548;51.196;6.838;2023-06-10T12:44:35;28.90;59.80
37702;DHT22;23548;51.196;6.838;2023-06-10T12:47:12;29.20;59.60
37702;DHT22;23548;51.196;6.838;2023-06-10T12:49:38;29.80;58.40
37702;DHT22;23548;51.196;6.838;2023-06-10T12:52:05;30.30;58.00
37702;DHT22;23548;51.196;6.838;2023-06-10T12:54:31;30.60;57.20
37702;DHT22;23548;51.196;6.838;2023-06-10T12:56:57;30.70;56.70
37702;DHT22;23548;51.196;6.838;2023-06-10T12:59:23;31.20;56.30
37702;DHT22;23548;51.196;6.838;2023-06-10T13:01:54;31.30;56.10
37702;DHT22;23548;51.196;6.838;2023-06-10T13:04:20;31.30;53.20
37702;DHT22;23548;51.196;6.838;2023-06-10T13:06:47;31.70;52.50
37702;DHT22;23548;51.196;6.838;2023-06-10T13:09:15;31.70;50.60
37702;DHT22;23548;51.196;6.838;2023-06-10T13:11:41;31.90;50.60
37702;DHT22;23548;51.196;6.838;2023-06-10T13:14:08;32.70;49.30
37702;DHT22;23548;51.196;6.838;2023-06-10T13:16:35;33.20;49.10
37702;DHT22;23548;51.196;6.838;2023-06-10T13:19:04;32.90;48.60
37702;DHT22;23548;51.196;6.838;2023-06-10T13:21:34;31.90;49.50
37702;DHT22;23548;51.196;6.838;2023-06-10T13:23:59;30.90;51.90
37702;DHT22;23548;51.196;6.838;2023-06-10T13:26:25;30.50;53.60
37702;DHT22;23548;51.196;6.838;2023-06-10T13:28:51;30.40;54.40
37702;DHT22;23548;51.196;6.838;2023-06-10T13:31:18;30.20;55.00
37702;DHT22;23548;51.196;6.838;2023-06-10T13:33:46;30.10;55.10
37702;DHT22;23548;51.196;6.838;2023-06-10T13:36:12;30.10;55.40
37702;DHT22;23548;51.196;6.838;2023-06-10T13:38:38;29.80;56.00
37702;DHT22;23548;51.196;6.838;2023-06-10T13:41:04;29.90;55.60
37702;DHT22;23548;51.196;6.838;2023-06-10T13:43:30;30.10;55.70
37702;DHT22;23548;51.196;6.838;2023-06-10T13:45:56;30.00;55.60
37702;DHT22;23548;51.196;6.838;2023-06-10T13:48:21;30.10;55.50
37702;DHT22;23548;51.196;6.838;2023-06-10T13:50:47;30.40;54.10
37702;DHT22;23548;51.196;6.838;2023-06-10T13:53:13;30.70;53.70
37702;DHT22;23548;51.196;6.838;2023-06-10T13:55:38;30.80;53.30
37702;DHT22;23548;51.196;6.838;2023-06-10T13:58:04;30.90;54.60
37702;DHT22;23548;51.196;6.838;2023-06-10T14:00:30;30.80;54.90
37702;DHT22;23548;51.196;6.838;2023-06-10T14:02:57;31.40;53.80
37702;DHT22;23548;51.196;6.838;2023-06-10T14:05:22;31.80;53.50
37702;DHT22;23548;51.196;6.838;2023-06-10T14:07:48;31.10;52.80
37702;DHT22;23548;51.196;6.838;2023-06-10T14:10:14;30.70;53.90
37702;DHT22;23548;51.196;6.838;2023-06-10T14:12:40;30.40;54.60
37702;DHT22;23548;51.196;6.838;2023-06-10T14:15:06;30.50;54.70
37702;DHT22;23548;51.196;6.838;2023-06-10T14:17:32;30.60;54.60
37702;DHT22;23548;51.196;6.838;2023-06-10T14:19:58;30.80;54.90
37702;DHT22;23548;51.196;6.838;2023-06-10T14:22:23;30.50;54.70
37702;DHT22;23548;51.196;6.838;2023-06-10T14:24:49;30.20;54.60
37702;DHT22;23548;51.196;6.838;2023-06-10T14:27:15;30.20;51.70
37702;DHT22;23548;51.196;6.838;2023-06-10T14:29:40;29.80;51.90
37702;DHT22;23548;51.196;6.838;2023-06-10T14:32:06;29.90;52.40
37702;DHT22;23548;51.196;6.838;2023-06-10T14:34:33;30.10;52.30
37702;DHT22;23548;51.196;6.838;2023-06-10T14:36:59;30.30;51.80
37702;DHT22;23548;51.196;6.838;2023-06-10T14:39:25;31.00;51.60
37702;DHT22;23548;51.196;6.838;2023-06-10T14:41:51;31.80;50.30
37702;DHT22;23548;51.196;6.838;2023-06-10T14:44:18;32.00;50.40
37702;DHT22;23548;51.196;6.838;2023-06-10T14:46:44;33.40;49.30
37702;DHT22;23548;51.196;6.838;2023-06-10T14:49:09;35.40;47.50
37702;DHT22;23548;51.196;6.838;2023-06-10T14:51:35;35.60;46.30
37702;DHT22;23548;51.196;6.838;2023-06-10T14:54:01;36.70;45.30
37702;DHT22;23548;51.196;6.838;2023-06-10T14:59:48;39.40;41.00
37702;DHT22;23548;51.196;6.838;2023-06-10T15:02:14;40.40;40.00
37702;DHT22;23548;51.196;6.838;2023-06-10T15:04:40;40.50;38.60
37702;DHT22;23548;51.196;6.838;2023-06-10T15:07:06;40.90;37.80
37702;DHT22;23548;51.196;6.838;2023-06-10T15:09:31;40.20;38.10
37702;DHT22;23548;51.196;6.838;2023-06-10T15:11:58;39.10;36.10
37702;DHT22;23548;51.196;6.838;2023-06-10T15:14:25;37.80;37.80
37702;DHT22;23548;51.196;6.838;2023-06-10T15:16:51;37.50;39.00
37702;DHT22;23548;51.196;6.838;2023-06-10T15:19:18;38.10;38.00
37702;DHT22;23548;51.196;6.838;2023-06-10T15:21:43;35.80;39.70
37702;DHT22;23548;51.196;6.838;2023-06-10T15:24:09;36.40;39.50
37702;DHT22;23548;51.196;6.838;2023-06-10T15:26:35;36.60;39.10
37702;DHT22;23548;51.196;6.838;2023-06-10T15:29:01;37.30;38.40
37702;DHT22;23548;51.196;6.838;2023-06-10T15:31:31;37.30;38.80
37702;DHT22;23548;51.196;6.838;2023-06-10T15:33:58;38.40;38.20
37702;DHT22;23548;51.196;6.838;2023-06-10T15:36:24;37.90;37.40
37702;DHT22;23548;51.196;6.838;2023-06-10T15:38:50;38.90;36.60
37702;DHT22;23548;51.196;6.838;2023-06-10T15:41:16;39.50;34.70
37702;DHT22;23548;51.196;6.838;2023-06-10T15:43:42;37.10;36.30